createdAt,value
2018-09-05T00:01:38.641Z,18.00
2018-09-05T00:04:07.160Z,18.00
2018-09-05T00:06:35.946Z,18.00
2018-09-05T00:09:05.080Z,18.00
2018-09-05T00:11:33.821Z,17.90
2018-09-05T00:14:02.593Z,18.00
2018-09-05T00:16:31.012Z,17.90
2018-09-05T00:18:59.826Z,17.90
2018-09-05T00:21:28.607Z,17.90
2018-09-05T00:23:57.315Z,17.90
2018-09-05T00:26:25.899Z,17.90
2018-09-05T00:28:53.956Z,17.80
2018-09-05T00:31:22.377Z,17.80
2018-09-05T00:33:50.813Z,17.80
2018-09-05T00:36:19.235Z,17.70
2018-09-05T00:38:47.367Z,17.70
2018-09-05T00:41:15.794Z,17.70
2018-09-05T00:43:44.297Z,17.70
2018-09-05T00:46:12.711Z,17.60
2018-09-05T00:48:40.790Z,17.60
2018-09-05T00:51:09.629Z,17.60
2018-09-05T00:53:38.391Z,17.50
2018-09-05T00:56:06.511Z,17.50
2018-09-05T00:58:34.956Z,17.50
2018-09-05T01:01:03.384Z,17.40
2018-09-05T01:03:32.124Z,17.40
2018-09-05T01:06:00.883Z,17.40
2018-09-05T01:08:29.806Z,17.40
2018-09-05T01:10:58.571Z,17.40
2018-09-05T01:13:27.368Z,17.30
2018-09-05T01:15:56.171Z,17.30
2018-09-05T01:18:24.246Z,17.30
2018-09-05T01:20:52.679Z,17.30
2018-09-05T01:23:21.475Z,17.30
2018-09-05T01:25:49.905Z,17.30
2018-09-05T01:28:18.071Z,17.30
2018-09-05T01:30:46.546Z,17.30
2018-09-05T01:33:15.286Z,17.20
2018-09-05T01:35:43.341Z,17.20
2018-09-05T01:38:12.102Z,17.20
2018-09-05T01:40:40.498Z,17.10
2018-09-05T01:43:08.994Z,17.20
2018-09-05T01:45:37.148Z,17.10
2018-09-05T01:48:05.467Z,17.10
2018-09-05T01:50:39.471Z,17.10
2018-09-05T01:53:07.901Z,17.00
2018-09-05T01:55:36.699Z,17.00
2018-09-05T01:58:04.814Z,17.00
2018-09-05T02:00:34.330Z,17.00
2018-09-05T02:03:04.214Z,17.00
2018-09-05T02:05:32.658Z,17.00
2018-09-05T02:08:02.369Z,17.00
2018-09-05T02:10:32.054Z,17.00
2018-09-05T02:13:01.130Z,16.90
2018-09-05T02:15:29.377Z,16.90
2018-09-05T02:17:57.822Z,16.90
2018-09-05T02:20:26.585Z,16.90
2018-09-05T02:22:55.333Z,16.80
2018-09-05T02:25:23.754Z,16.80
2018-09-05T02:27:52.520Z,16.80
2018-09-05T02:30:20.991Z,16.80
2018-09-05T02:32:49.102Z,16.70
2018-09-05T02:35:17.894Z,16.70
2018-09-05T02:37:46.770Z,16.80
2018-09-05T02:40:14.975Z,16.80
2018-09-05T02:42:43.548Z,16.70
2018-09-05T02:45:11.973Z,16.70
2018-09-05T02:47:40.426Z,16.80
2018-09-05T02:50:15.407Z,16.70
2018-09-05T02:52:44.493Z,16.80
2018-09-05T02:55:17.441Z,16.70
2018-09-05T02:57:45.915Z,16.70
2018-09-05T03:00:14.649Z,16.60
2018-09-05T03:02:43.624Z,16.50
2018-09-05T03:05:12.407Z,16.60
2018-09-05T03:07:41.179Z,16.50
2018-09-05T03:10:09.369Z,16.50
2018-09-05T03:12:38.202Z,16.60
2018-09-05T03:15:07.023Z,16.60
2018-09-05T03:17:35.511Z,16.60
2018-09-05T03:20:03.622Z,16.60
2018-09-05T03:22:32.470Z,16.60
2018-09-05T03:25:01.264Z,16.60
2018-09-05T03:27:30.106Z,16.60
2018-09-05T03:29:58.902Z,16.60
2018-09-05T03:32:27.735Z,16.60
2018-09-05T03:34:56.038Z,16.70
2018-09-05T03:37:24.795Z,16.70
2018-09-05T03:39:53.893Z,16.70
2018-09-05T03:42:22.668Z,16.80
2018-09-05T03:44:51.447Z,16.70
2018-09-05T03:47:20.204Z,16.70
2018-09-05T03:49:48.728Z,16.80
2018-09-05T03:52:17.134Z,16.90
2018-09-05T03:54:45.703Z,16.90
2018-09-05T03:57:14.700Z,16.90
2018-09-05T03:59:43.196Z,17.00
2018-09-05T04:02:11.732Z,17.00
2018-09-05T04:04:40.611Z,17.00
2018-09-05T04:07:09.508Z,17.10
2018-09-05T04:09:38.246Z,17.00
2018-09-05T04:12:06.407Z,17.10
2018-09-05T04:14:35.329Z,17.00
2018-09-05T04:17:04.151Z,17.10
2018-09-05T04:19:33.007Z,17.10
2018-09-05T04:22:01.898Z,17.00
2018-09-05T04:24:31.141Z,17.00
2018-09-05T04:26:59.928Z,17.00
2018-09-05T04:29:28.713Z,17.20
2018-09-05T04:31:56.950Z,17.20
2018-09-05T04:34:25.427Z,17.20
2018-09-05T04:36:54.344Z,17.20
2018-09-05T04:39:23.147Z,17.10
2018-09-05T04:41:51.218Z,17.10
2018-09-05T04:44:19.995Z,17.10
2018-09-05T04:46:48.730Z,17.20
2018-09-05T04:49:17.493Z,17.20
2018-09-05T04:51:45.935Z,17.20
2018-09-05T04:54:14.745Z,17.30
2018-09-05T04:56:43.534Z,17.30
2018-09-05T04:59:12.323Z,17.20
2018-09-05T05:01:41.118Z,17.20
2018-09-05T05:04:09.915Z,17.30
2018-09-05T05:06:38.922Z,17.40
2018-09-05T05:09:09.289Z,17.40
2018-09-05T05:11:38.226Z,17.50
2018-09-05T05:14:06.336Z,17.50
2018-09-05T05:16:35.156Z,17.50
2018-09-05T05:19:04.225Z,17.40
2018-09-05T05:21:32.408Z,17.40
2018-09-05T05:24:00.793Z,17.40
2018-09-05T05:26:29.527Z,17.40
2018-09-05T05:28:57.899Z,17.50
2018-09-05T05:31:26.281Z,17.50
2018-09-05T05:33:54.686Z,17.50
2018-09-05T05:36:23.507Z,17.50
2018-09-05T05:38:51.902Z,17.50
2018-09-05T05:41:20.369Z,17.50
2018-09-05T05:43:49.142Z,17.60
2018-09-05T05:46:17.673Z,17.60
2018-09-05T05:48:46.184Z,17.60
2018-09-05T05:51:14.731Z,17.60
2018-09-05T05:53:43.508Z,17.60
2018-09-05T05:56:12.753Z,17.70
2018-09-05T05:58:41.506Z,17.70
2018-09-05T06:01:10.349Z,17.80
2018-09-05T06:03:38.893Z,17.90
2018-09-05T06:06:07.862Z,17.90
2018-09-05T06:08:36.814Z,18.00
2018-09-05T06:11:05.134Z,18.00
2018-09-05T06:13:33.572Z,18.10
2018-09-05T06:16:02.350Z,18.10
2018-09-05T06:18:31.069Z,18.10
2018-09-05T06:20:59.811Z,18.00
2018-09-05T06:23:28.459Z,18.10
2018-09-05T06:25:56.968Z,18.20
2018-09-05T06:28:25.825Z,18.20
2018-09-05T06:30:54.721Z,18.30
2018-09-05T06:33:23.644Z,18.50
2018-09-05T06:35:52.451Z,18.50
2018-09-05T06:38:21.271Z,18.60
2018-09-05T06:40:49.649Z,18.70
2018-09-05T06:43:18.081Z,18.70
2018-09-05T06:45:46.965Z,18.90
2018-09-05T06:48:15.406Z,19.00
2018-09-05T06:50:44.165Z,19.20
2018-09-05T06:53:12.603Z,19.20
2018-09-05T06:55:41.474Z,19.20
2018-09-05T06:58:10.255Z,19.20
2018-09-05T07:00:39.319Z,19.60
2018-09-05T07:03:07.875Z,19.80
2018-09-05T07:05:39.049Z,20.10
2018-09-05T07:08:07.380Z,20.30
2018-09-05T07:10:36.880Z,20.80
2018-09-05T07:13:05.521Z,21.20
2018-09-05T07:15:34.235Z,21.50
2018-09-05T07:18:02.994Z,21.40
2018-09-05T07:20:31.878Z,21.30
2018-09-05T07:23:00.356Z,21.20
2018-09-05T07:25:28.788Z,21.00
2018-09-05T07:27:57.186Z,21.00
2018-09-05T07:30:26.025Z,20.70
2018-09-05T07:32:54.958Z,20.70
2018-09-05T07:35:23.513Z,20.80
2018-09-05T07:37:51.732Z,21.10
2018-09-05T07:40:20.262Z,21.20
2018-09-05T07:42:48.666Z,21.10
2018-09-05T07:45:17.435Z,21.40
2018-09-05T07:47:45.585Z,21.90
2018-09-05T07:50:14.478Z,22.50
2018-09-05T07:52:43.231Z,23.00
2018-09-05T07:55:12.052Z,23.40
2018-09-05T07:57:40.880Z,23.70
2018-09-05T08:00:08.982Z,23.90
2018-09-05T08:02:37.799Z,23.70
2018-09-05T08:05:05.848Z,24.00
2018-09-05T08:07:34.249Z,24.50
2018-09-05T08:10:03.505Z,24.70
2018-09-05T08:12:32.375Z,24.80
2018-09-05T08:15:01.226Z,25.20
2018-09-05T08:17:29.967Z,25.60
2018-09-05T08:19:58.868Z,26.10
2018-09-05T08:22:27.692Z,25.70
2018-09-05T08:24:56.475Z,25.90
2018-09-05T08:27:25.233Z,26.70
2018-09-05T08:29:53.736Z,26.60
2018-09-05T08:32:22.815Z,26.50
2018-09-05T08:34:51.730Z,26.50
2018-09-05T08:37:20.473Z,25.90
2018-09-05T08:39:49.253Z,26.50
2018-09-05T08:42:17.452Z,27.00
2018-09-05T08:44:46.727Z,27.60
2018-09-05T08:47:14.645Z,27.80
2018-09-05T08:49:43.607Z,28.10
2018-09-05T08:52:12.392Z,28.00
2018-09-05T08:54:41.111Z,28.50
2018-09-05T08:57:09.865Z,29.00
2018-09-05T08:59:38.360Z,29.30
2018-09-05T09:02:06.437Z,28.60
2018-09-05T09:04:35.778Z,27.40
2018-09-05T09:07:04.143Z,27.80
2018-09-05T09:09:32.902Z,28.10
2018-09-05T09:12:01.683Z,28.00
2018-09-05T09:14:30.434Z,27.60
2018-09-05T09:16:59.230Z,27.10
2018-09-05T09:19:27.643Z,27.90
2018-09-05T09:21:56.575Z,28.40
2018-09-05T09:24:25.550Z,28.30
2018-09-05T09:26:53.974Z,28.50
2018-09-05T09:29:25.636Z,28.00
2018-09-05T09:31:54.592Z,27.70
2018-09-05T09:34:23.368Z,28.10
2018-09-05T09:36:51.830Z,28.90
2018-09-05T09:39:20.297Z,29.40
2018-09-05T09:41:50.108Z,28.60
2018-09-05T09:44:19.508Z,28.20
2018-09-05T09:46:47.969Z,28.60
2018-09-05T09:49:16.369Z,28.40
2018-09-05T09:51:44.797Z,27.90
2018-09-05T09:54:13.595Z,27.40
2018-09-05T09:56:41.709Z,27.00
2018-09-05T09:59:10.602Z,26.50
2018-09-05T10:01:44.939Z,26.50
2018-09-05T10:04:19.275Z,27.10
2018-09-05T10:06:50.146Z,27.00
2018-09-05T10:09:24.461Z,26.50
2018-09-05T10:11:58.823Z,26.50
2018-09-05T10:14:32.840Z,26.70
2018-09-05T10:17:06.843Z,27.50
2018-09-05T10:19:35.867Z,28.80
2018-09-05T10:22:03.934Z,28.60
2018-09-05T10:24:32.678Z,28.30
2018-09-05T10:27:01.470Z,28.50
2018-09-05T10:29:30.302Z,28.60
2018-09-05T10:31:59.075Z,27.80
2018-09-05T10:34:27.852Z,26.90
2018-09-05T10:37:03.146Z,26.50
2018-09-05T10:39:32.181Z,26.60
2018-09-05T10:42:00.911Z,26.60
2018-09-05T10:44:29.650Z,27.10
2018-09-05T10:46:58.067Z,28.00
2018-09-05T10:49:26.683Z,28.20
2018-09-05T10:51:57.547Z,29.10
2018-09-05T10:54:26.298Z,30.40
2018-09-05T10:56:54.682Z,30.60
2018-09-05T10:59:23.189Z,30.30
2018-09-05T11:01:51.967Z,29.60
2018-09-05T11:04:20.746Z,29.20
2018-09-05T11:06:49.669Z,28.60
2018-09-05T11:09:18.537Z,28.10
2018-09-05T11:11:47.269Z,27.60
2018-09-05T11:14:16.147Z,27.20
2018-09-05T11:16:44.571Z,26.70
2018-09-05T11:19:13.339Z,26.40
2018-09-05T11:21:41.747Z,26.00
2018-09-05T11:24:09.931Z,25.80
2018-09-05T11:26:38.507Z,25.60
2018-09-05T11:29:06.969Z,25.40
2018-09-05T11:31:35.539Z,25.40
2018-09-05T11:34:03.782Z,25.70
2018-09-05T11:36:32.566Z,25.80
2018-09-05T11:39:01.457Z,25.70
2018-09-05T11:41:29.829Z,25.60
2018-09-05T11:43:58.687Z,25.30
2018-09-05T11:46:27.470Z,25.30
2018-09-05T11:48:56.230Z,25.10
2018-09-05T11:51:25.339Z,25.10
2018-09-05T11:53:54.070Z,25.10
2018-09-05T11:56:22.859Z,25.00
2018-09-05T11:58:51.666Z,25.20
2018-09-05T12:01:20.445Z,25.70
2018-09-05T12:03:49.149Z,26.90
2018-09-05T12:06:17.970Z,28.80
2018-09-05T12:08:46.797Z,29.70
2018-09-05T12:11:15.274Z,29.50
2018-09-05T12:13:44.085Z,28.70
2018-09-05T12:16:12.938Z,28.00
2018-09-05T12:18:41.326Z,27.70
2018-09-05T12:21:09.731Z,27.30
2018-09-05T12:23:38.178Z,28.40
2018-09-05T12:26:07.286Z,30.60
2018-09-05T12:28:35.718Z,32.90
2018-09-05T12:31:04.455Z,32.40
2018-09-05T12:33:33.371Z,31.50
2018-09-05T12:36:02.521Z,30.30
2018-09-05T12:38:31.752Z,29.20
2018-09-05T12:41:00.342Z,28.30
2018-09-05T12:43:29.135Z,28.10
2018-09-05T12:45:57.772Z,27.70
2018-09-05T12:48:26.585Z,27.50
2018-09-05T12:50:55.587Z,27.50
2018-09-05T12:53:24.362Z,27.50
2018-09-05T12:55:52.767Z,27.50
2018-09-05T12:58:21.602Z,27.50
2018-09-05T13:00:50.005Z,27.40
2018-09-05T13:03:18.360Z,27.30
2018-09-05T13:05:47.315Z,27.20
2018-09-05T13:08:15.746Z,27.30
2018-09-05T13:10:44.278Z,27.20
2018-09-05T13:13:13.459Z,27.20
2018-09-05T13:15:42.234Z,27.30
2018-09-05T13:18:10.938Z,29.00
2018-09-05T13:20:39.365Z,31.60
2018-09-05T13:23:07.818Z,32.40
2018-09-05T13:25:36.610Z,33.40
2018-09-05T13:28:05.084Z,34.50
2018-09-05T13:30:33.843Z,35.10
2018-09-05T13:33:02.631Z,35.60
2018-09-05T13:35:31.263Z,34.90
2018-09-05T13:38:00.033Z,35.90
2018-09-05T13:40:28.523Z,35.30
2018-09-05T13:42:56.906Z,33.90
2018-09-05T13:45:25.590Z,33.80
2018-09-05T13:47:54.039Z,34.20
2018-09-05T13:50:22.577Z,33.30
2018-09-05T13:52:51.290Z,32.00
2018-09-05T13:55:20.037Z,30.50
2018-09-05T13:57:48.825Z,29.20
2018-09-05T14:00:17.305Z,28.20
2018-09-05T14:02:46.880Z,27.40
2018-09-05T14:05:15.969Z,27.30
2018-09-05T14:07:44.932Z,27.30
2018-09-05T14:10:14.738Z,26.90
2018-09-05T14:12:44.010Z,26.90
2018-09-05T14:15:12.748Z,26.90
2018-09-05T14:17:41.509Z,28.00
2018-09-05T14:20:10.321Z,30.00
2018-09-05T14:22:38.507Z,30.90
2018-09-05T14:25:06.580Z,31.30
2018-09-05T14:27:35.374Z,32.10
2018-09-05T14:30:03.850Z,31.90
2018-09-05T14:32:31.902Z,32.60
2018-09-05T14:35:00.741Z,32.90
2018-09-05T14:37:29.488Z,34.00
2018-09-05T14:39:58.246Z,34.60
2018-09-05T14:42:27.009Z,35.40
2018-09-05T14:44:55.523Z,35.80
2018-09-05T14:47:24.225Z,34.10
2018-09-05T14:49:53.093Z,32.80
2018-09-05T14:52:21.551Z,31.50
2018-09-05T14:54:49.997Z,30.70
2018-09-05T14:57:18.747Z,30.60
2018-09-05T14:59:47.816Z,30.50
2018-09-05T15:02:16.455Z,30.20
2018-09-05T15:04:45.026Z,30.10
2018-09-05T15:07:13.789Z,30.00
2018-09-05T15:09:42.178Z,29.70
2018-09-05T15:12:11.323Z,29.20
2018-09-05T15:14:39.932Z,28.80
2018-09-05T15:17:08.703Z,28.50
2018-09-05T15:19:37.098Z,28.20
2018-09-05T15:22:05.180Z,28.20
2018-09-05T15:24:33.966Z,28.40
2018-09-05T15:27:02.810Z,28.60
2018-09-05T15:29:31.637Z,28.30
2018-09-05T15:32:00.439Z,27.90
2018-09-05T15:34:28.894Z,27.50
2018-09-05T15:36:57.361Z,27.30
2018-09-05T15:39:25.829Z,27.20
2018-09-05T15:41:54.755Z,27.20
2018-09-05T15:44:23.999Z,27.00
2018-09-05T15:46:52.829Z,26.90
2018-09-05T15:49:21.723Z,26.80
2018-09-05T15:51:54.435Z,26.60
2018-09-05T15:54:25.046Z,26.30
2018-09-05T15:56:54.217Z,26.20
2018-09-05T15:59:23.292Z,26.20
2018-09-05T16:01:52.546Z,26.30
2018-09-05T16:04:21.575Z,26.10
2018-09-05T16:06:50.360Z,26.00
2018-09-05T16:09:18.790Z,25.90
2018-09-05T16:11:47.609Z,25.80
2018-09-05T16:14:16.413Z,25.80
2018-09-05T16:16:45.162Z,25.60
2018-09-05T16:19:13.922Z,25.50
2018-09-05T16:21:43.079Z,25.40
2018-09-05T16:24:12.129Z,25.40
2018-09-05T16:26:40.963Z,25.30
2018-09-05T16:29:10.143Z,25.40
2018-09-05T16:31:38.563Z,25.30
2018-09-05T16:34:07.053Z,25.30
2018-09-05T16:36:35.940Z,25.20
2018-09-05T16:39:05.850Z,25.10
2018-09-05T16:41:34.251Z,25.10
2018-09-05T16:44:02.402Z,25.00
2018-09-05T16:46:30.758Z,24.90
2018-09-05T16:48:59.162Z,24.90
2018-09-05T16:51:27.919Z,24.70
2018-09-05T16:53:56.741Z,24.60
2018-09-05T16:56:25.312Z,24.60
2018-09-05T16:58:53.717Z,24.60
2018-09-05T17:01:22.456Z,24.50
2018-09-05T17:03:51.418Z,24.50
2018-09-05T17:06:19.528Z,24.40
2018-09-05T17:08:48.330Z,24.30
2018-09-05T17:11:17.121Z,24.20
2018-09-05T17:13:45.552Z,24.20
2018-09-05T17:16:14.508Z,24.20
2018-09-05T17:18:43.147Z,24.10
2018-09-05T17:21:11.570Z,24.10
2018-09-05T17:23:40.017Z,24.00
2018-09-05T17:26:08.926Z,24.00
2018-09-05T17:28:37.755Z,23.90
2018-09-05T17:31:06.144Z,23.80
2018-09-05T17:33:35.247Z,23.70
2018-09-05T17:36:03.395Z,23.60
2018-09-05T17:38:31.843Z,23.50
2018-09-05T17:41:00.808Z,23.40
2018-09-05T17:43:29.536Z,23.30
2018-09-05T17:45:58.266Z,23.20
2018-09-05T17:48:27.119Z,23.20
2018-09-05T17:50:55.586Z,23.10
2018-09-05T17:53:24.291Z,23.00
2018-09-05T17:55:53.239Z,22.90
2018-09-05T17:58:21.342Z,22.90
2018-09-05T18:00:50.064Z,22.80
2018-09-05T18:03:18.845Z,22.70
2018-09-05T18:05:47.563Z,22.70
2018-09-05T18:08:16.221Z,22.50
2018-09-05T18:10:44.824Z,22.50
2018-09-05T18:13:13.589Z,22.50
2018-09-05T18:15:42.346Z,22.40
2018-09-05T18:18:11.162Z,22.40
2018-09-05T18:20:39.964Z,22.30
2018-09-05T18:23:08.860Z,22.30
2018-09-05T18:25:37.740Z,22.20
2018-09-05T18:28:06.001Z,22.20
2018-09-05T18:30:34.428Z,22.10
2018-09-05T18:33:03.187Z,22.10
2018-09-05T18:35:31.957Z,22.00
2018-09-05T18:38:02.105Z,21.90
2018-09-05T18:40:30.572Z,21.90
2018-09-05T18:42:59.178Z,21.80
2018-09-05T18:45:28.177Z,21.70
2018-09-05T18:47:56.940Z,21.70
2018-09-05T18:50:25.505Z,21.70
2018-09-05T18:52:59.493Z,21.60
2018-09-05T18:55:27.961Z,21.60
2018-09-05T18:57:56.834Z,21.60
2018-09-05T19:00:25.651Z,21.60
2018-09-05T19:02:54.169Z,21.60
2018-09-05T19:05:22.907Z,21.60
2018-09-05T19:07:51.386Z,21.60
2018-09-05T19:10:20.246Z,21.60
2018-09-05T19:12:48.370Z,21.60
2018-09-05T19:15:16.869Z,21.60
2018-09-05T19:17:45.607Z,21.60
2018-09-05T19:20:14.127Z,21.60
2018-09-05T19:22:43.949Z,21.60
2018-09-05T19:25:12.896Z,21.60
2018-09-05T19:27:42.057Z,21.60
2018-09-05T19:30:11.237Z,21.50
2018-09-05T19:32:40.110Z,21.40
2018-09-05T19:35:08.583Z,21.50
2018-09-05T19:37:37.910Z,21.40
2018-09-05T19:40:06.398Z,21.40
2018-09-05T19:42:35.715Z,21.40
2018-09-05T19:45:04.202Z,21.30
2018-09-05T19:47:32.358Z,21.30
2018-09-05T19:50:00.776Z,21.30
2018-09-05T19:52:29.547Z,21.30
2018-09-05T19:54:57.921Z,21.20
2018-09-05T19:57:26.765Z,21.20
2018-09-05T19:59:55.474Z,21.20
2018-09-05T20:02:24.203Z,21.20
2018-09-05T20:04:53.171Z,21.10
2018-09-05T20:07:21.995Z,21.10
2018-09-05T20:09:50.921Z,21.00
2018-09-05T20:12:20.181Z,21.00
2018-09-05T20:14:48.787Z,20.90
2018-09-05T20:17:17.666Z,20.90
2018-09-05T20:19:46.234Z,20.90
2018-09-05T20:22:14.965Z,20.90
2018-09-05T20:24:43.831Z,20.90
2018-09-05T20:27:12.632Z,20.90
2018-09-05T20:29:41.877Z,20.90
2018-09-05T20:32:10.665Z,20.80
2018-09-05T20:34:39.411Z,20.80
2018-09-05T20:37:08.163Z,20.70
2018-09-05T20:39:36.619Z,20.70
2018-09-05T20:42:04.698Z,20.70
2018-09-05T20:44:33.127Z,20.70
2018-09-05T20:47:01.878Z,20.60
2018-09-05T20:49:30.445Z,20.60
2018-09-05T20:51:58.928Z,20.60
2018-09-05T20:54:27.828Z,20.50
2018-09-05T20:56:56.662Z,20.50
2018-09-05T20:59:24.834Z,20.40
2018-09-05T21:01:53.403Z,20.40
2018-09-05T21:04:22.223Z,20.40
2018-09-05T21:06:51.331Z,20.40
2018-09-05T21:09:19.403Z,20.30
2018-09-05T21:11:48.242Z,20.30
2018-09-05T21:14:17.030Z,20.30
2018-09-05T21:16:45.779Z,20.20
2018-09-05T21:19:14.481Z,20.20
2018-09-05T21:21:43.206Z,20.10
2018-09-05T21:24:12.014Z,20.10
2018-09-05T21:26:40.738Z,20.10
2018-09-05T21:29:09.528Z,20.00
2018-09-05T21:31:38.667Z,19.90
2018-09-05T21:34:07.421Z,19.90
2018-09-05T21:36:36.159Z,19.90
2018-09-05T21:39:06.326Z,19.80
2018-09-05T21:41:36.803Z,19.80
2018-09-05T21:44:05.486Z,19.70
2018-09-05T21:46:34.415Z,19.60
2018-09-05T21:49:03.581Z,19.60
2018-09-05T21:51:32.351Z,19.50
2018-09-05T21:54:01.135Z,19.50
2018-09-05T21:56:29.908Z,19.50
2018-09-05T21:58:58.656Z,19.50
2018-09-05T22:01:27.810Z,19.30
2018-09-05T22:03:56.553Z,19.40
2018-09-05T22:06:25.270Z,19.30
2018-09-05T22:08:54.040Z,19.20
2018-09-05T22:11:24.156Z,19.20
2018-09-05T22:13:53.636Z,19.20
2018-09-05T22:16:23.340Z,19.20
2018-09-05T22:18:51.968Z,19.20
2018-09-05T22:21:20.504Z,19.10
2018-09-05T22:23:49.163Z,19.10
2018-09-05T22:26:17.630Z,19.10
2018-09-05T22:28:46.462Z,19.10
2018-09-05T22:31:15.537Z,19.00
2018-09-05T22:33:44.349Z,19.00
2018-09-05T22:36:12.786Z,18.90
2018-09-05T22:38:41.528Z,18.90
2018-09-05T22:41:10.254Z,18.90
2018-09-05T22:43:50.206Z,18.90
2018-09-05T22:46:29.997Z,18.80
2018-09-05T22:49:09.944Z,18.80
2018-09-05T22:52:20.246Z,18.80
2018-09-05T22:55:37.114Z,18.70
2018-09-05T22:58:17.603Z,18.60
2018-09-05T23:00:58.107Z,18.60
2018-09-05T23:03:38.291Z,18.60
2018-09-05T23:06:17.060Z,18.70
2018-09-05T23:08:46.327Z,18.60
2018-09-05T23:11:27.928Z,18.60
2018-09-05T23:14:07.467Z,18.70
2018-09-05T23:18:52.616Z,18.60
2018-09-05T23:21:22.621Z,18.60
2018-09-05T23:24:07.705Z,18.50
2018-09-05T23:26:35.792Z,18.50
2018-09-05T23:29:03.866Z,18.50
2018-09-05T23:31:32.408Z,18.50
2018-09-05T23:34:01.175Z,18.50
2018-09-05T23:36:29.240Z,18.50
2018-09-05T23:38:57.619Z,18.60
2018-09-05T23:41:26.325Z,18.50
2018-09-05T23:43:54.895Z,18.60
2018-09-05T23:46:23.618Z,18.60
2018-09-05T23:48:52.357Z,18.50
2018-09-05T23:51:20.796Z,18.50
2018-09-05T23:53:49.396Z,18.50
2018-09-05T23:56:18.202Z,18.40
2018-09-05T23:58:46.966Z,18.40
